In Rescue
 
Wind Gusting 00 knots
03
November 15, 2018 2:02 AM EST
Weather Information
Wind Direction
  080 °
Wind Speed
  03 kt (3 mph)
Wind Gust
  00 kt (0 mph)
Altimeter
30.19 in
Visibility
3/4 SM
Temperature
00° C
32° F
Dewpoint
00° C
32° F
Humidity
100%
Sky Condition
Overcast @ 900 ft
IFR

METAR KIMS 150702Z AUTO 08003KT 3/4SM OVC009 00/00 A3019 RMK AO1

FAA Disclaimer: The data displayed is for advisory purposes only and is not to be used for flight planning or operations.